Terminal Aerodrome Forecast
Issued by NWS Indianapolis, IN

Home | Current Version | Previous Version | Text Only | Print | Product List | Glossary On
Versions: 1 2 3 4 5 6 7 8 9 10 11 12 13 14 15 16 17 18 19 20 21 22 23 24 25 26
680
FTUS43 KIND 281450 AAC
TAFIND
TAF AMD
KIND 281450Z 2815/0118 16010KT 6SM BR VCSH BKN008
      TEMPO 2815/2817 2SM -DZ BR
     FM281800 19010G20KT P6SM OVC008
     FM010000 20011G20KT P6SM SHRA VCTS OVC008CB
     FM010600 20011G21KT P6SM SHRA VCTS OVC035CB
     FM011000 22014G26KT 6SM SHRA VCTS OVC070CB
     FM011200 23013G23KT 6SM SHRA BR OVC035
     FM011700 26016G28KT P6SM SHRA BKN025=

USA.gov is the U.S. government's official web portal to all federal, state and local government web resources and services.